sensor_id;sensor_type;location;lat;lon;timestamp;P1;durP1;ratioP1;P2;durP2;ratioP2
68614;SDS011;55593;51.994;5.882;2022-11-15T00:00:06;54.78;;;24.67;;
68614;SDS011;55593;51.994;5.882;2022-11-15T00:02:57;54.50;;;26.02;;
68614;SDS011;55593;51.994;5.882;2022-11-15T00:05:45;62.10;;;26.42;;
68614;SDS011;55593;51.994;5.882;2022-11-15T00:08:33;62.08;;;27.52;;
68614;SDS011;55593;51.994;5.882;2022-11-15T00:11:21;60.40;;;26.58;;
68614;SDS011;55593;51.994;5.882;2022-11-15T00:14:09;52.13;;;26.15;;
68614;SDS011;55593;51.994;5.882;2022-11-15T00:16:57;59.05;;;26.35;;
68614;SDS011;55593;51.994;5.882;2022-11-15T00:19:47;60.22;;;25.80;;
68614;SDS011;55593;51.994;5.882;2022-11-15T00:22:34;58.85;;;26.15;;
68614;SDS011;55593;51.994;5.882;2022-11-15T00:25:22;63.65;;;26.50;;
68614;SDS011;55593;51.994;5.882;2022-11-15T00:28:09;59.90;;;26.13;;
68614;SDS011;55593;51.994;5.882;2022-11-15T00:30:59;58.97;;;25.27;;
68614;SDS011;55593;51.994;5.882;2022-11-15T00:33:48;60.20;;;25.80;;
68614;SDS011;55593;51.994;5.882;2022-11-15T00:36:38;53.35;;;26.05;;
68614;SDS011;55593;51.994;5.882;2022-11-15T00:39:26;60.50;;;25.55;;
68614;SDS011;55593;51.994;5.882;2022-11-15T00:42:13;56.83;;;26.45;;
68614;SDS011;55593;51.994;5.882;2022-11-15T00:45:00;57.63;;;26.83;;
68614;SDS011;55593;51.994;5.882;2022-11-15T00:47:48;54.25;;;26.05;;
68614;SDS011;55593;51.994;5.882;2022-11-15T00:50:35;52.95;;;25.58;;
68614;SDS011;55593;51.994;5.882;2022-11-15T00:53:25;52.70;;;26.30;;
68614;SDS011;55593;51.994;5.882;2022-11-15T00:56:13;49.22;;;26.35;;
68614;SDS011;55593;51.994;5.882;2022-11-15T00:59:00;56.92;;;26.75;;
68614;SDS011;55593;51.994;5.882;2022-11-15T01:01:48;47.45;;;25.23;;
68614;SDS011;55593;51.994;5.882;2022-11-15T01:04:36;50.88;;;25.80;;
68614;SDS011;55593;51.994;5.882;2022-11-15T01:07:23;50.22;;;25.20;;
68614;SDS011;55593;51.994;5.882;2022-11-15T01:13:03;68.53;;;27.50;;
68614;SDS011;55593;51.994;5.882;2022-11-15T01:15:51;44.85;;;24.80;;
68614;SDS011;55593;51.994;5.882;2022-11-15T01:18:38;48.63;;;25.33;;
68614;SDS011;55593;51.994;5.882;2022-11-15T01:21:26;47.17;;;25.45;;
68614;SDS011;55593;51.994;5.882;2022-11-15T01:24:14;60.85;;;26.58;;
68614;SDS011;55593;51.994;5.882;2022-11-15T01:27:04;45.38;;;27.15;;
68614;SDS011;55593;51.994;5.882;2022-11-15T01:29:52;55.60;;;27.23;;
68614;SDS011;55593;51.994;5.882;2022-11-15T01:32:39;43.60;;;24.98;;
68614;SDS011;55593;51.994;5.882;2022-11-15T01:35:27;46.75;;;25.75;;
68614;SDS011;55593;51.994;5.882;2022-11-15T01:38:14;49.70;;;25.52;;
68614;SDS011;55593;51.994;5.882;2022-11-15T01:41:02;44.72;;;25.95;;
68614;SDS011;55593;51.994;5.882;2022-11-15T01:43:54;45.50;;;23.73;;
68614;SDS011;55593;51.994;5.882;2022-11-15T01:46:42;51.13;;;26.40;;
68614;SDS011;55593;51.994;5.882;2022-11-15T01:49:33;52.08;;;26.83;;
68614;SDS011;55593;51.994;5.882;2022-11-15T01:52:24;55.08;;;26.95;;
68614;SDS011;55593;51.994;5.882;2022-11-15T01:55:13;45.22;;;26.10;;
68614;SDS011;55593;51.994;5.882;2022-11-15T01:58:03;52.38;;;27.75;;
68614;SDS011;55593;51.994;5.882;2022-11-15T02:00:54;50.47;;;26.05;;
68614;SDS011;55593;51.994;5.882;2022-11-15T02:03:42;45.97;;;26.92;;
68614;SDS011;55593;51.994;5.882;2022-11-15T02:06:33;46.00;;;27.05;;
68614;SDS011;55593;51.994;5.882;2022-11-15T02:09:21;46.50;;;25.98;;
68614;SDS011;55593;51.994;5.882;2022-11-15T02:12:09;45.75;;;24.45;;
68614;SDS011;55593;51.994;5.882;2022-11-15T02:14:58;44.92;;;26.33;;
68614;SDS011;55593;51.994;5.882;2022-11-15T02:17:51;51.67;;;26.52;;
68614;SDS011;55593;51.994;5.882;2022-11-15T02:20:51;42.05;;;25.35;;
68614;SDS011;55593;51.994;5.882;2022-11-15T02:23:56;41.45;;;25.58;;
68614;SDS011;55593;51.994;5.882;2022-11-15T02:30:27;45.67;;;25.17;;
68614;SDS011;55593;51.994;5.882;2022-11-15T02:33:25;36.95;;;24.40;;
68614;SDS011;55593;51.994;5.882;2022-11-15T02:36:18;36.42;;;24.50;;
68614;SDS011;55593;51.994;5.882;2022-11-15T02:39:13;38.42;;;24.77;;
68614;SDS011;55593;51.994;5.882;2022-11-15T02:42:07;40.28;;;24.30;;
68614;SDS011;55593;51.994;5.882;2022-11-15T02:45:17;42.95;;;25.10;;
68614;SDS011;55593;51.994;5.882;2022-11-15T02:48:09;38.75;;;25.55;;
68614;SDS011;55593;51.994;5.882;2022-11-15T02:50:58;44.75;;;25.65;;
68614;SDS011;55593;51.994;5.882;2022-11-15T02:53:46;43.05;;;25.08;;
68614;SDS011;55593;51.994;5.882;2022-11-15T02:56:33;35.95;;;22.98;;
68614;SDS011;55593;51.994;5.882;2022-11-15T03:02:48;42.95;;;25.73;;
68614;SDS011;55593;51.994;5.882;2022-11-15T03:05:48;41.00;;;25.55;;
68614;SDS011;55593;51.994;5.882;2022-11-15T03:08:43;41.15;;;25.00;;
68614;SDS011;55593;51.994;5.882;2022-11-15T03:11:37;43.47;;;25.50;;
68614;SDS011;55593;51.994;5.882;2022-11-15T03:14:28;40.63;;;25.45;;
68614;SDS011;55593;51.994;5.882;2022-11-15T03:17:18;49.10;;;24.67;;
68614;SDS011;55593;51.994;5.882;2022-11-15T03:20:10;43.78;;;27.13;;
68614;SDS011;55593;51.994;5.882;2022-11-15T03:23:03;39.30;;;24.10;;
68614;SDS011;55593;51.994;5.882;2022-11-15T03:25:52;39.58;;;25.23;;
68614;SDS011;55593;51.994;5.882;2022-11-15T03:28:42;38.67;;;24.17;;
68614;SDS011;55593;51.994;5.882;2022-11-15T03:31:33;38.92;;;23.83;;
68614;SDS011;55593;51.994;5.882;2022-11-15T03:34:36;43.90;;;24.70;;
68614;SDS011;55593;51.994;5.882;2022-11-15T03:37:28;36.65;;;23.00;;
68614;SDS011;55593;51.994;5.882;2022-11-15T03:40:22;48.28;;;26.33;;
68614;SDS011;55593;51.994;5.882;2022-11-15T03:43:15;46.92;;;26.10;;
68614;SDS011;55593;51.994;5.882;2022-11-15T03:46:11;51.30;;;27.85;;
68614;SDS011;55593;51.994;5.882;2022-11-15T03:49:03;43.17;;;25.98;;
68614;SDS011;55593;51.994;5.882;2022-11-15T03:51:54;51.80;;;27.55;;
68614;SDS011;55593;51.994;5.882;2022-11-15T03:54:50;46.22;;;27.95;;
68614;SDS011;55593;51.994;5.882;2022-11-15T03:57:42;48.75;;;28.08;;
68614;SDS011;55593;51.994;5.882;2022-11-15T04:00:29;45.35;;;24.98;;
68614;SDS011;55593;51.994;5.882;2022-11-15T04:03:17;46.80;;;26.75;;
68614;SDS011;55593;51.994;5.882;2022-11-15T04:06:05;61.58;;;30.17;;
68614;SDS011;55593;51.994;5.882;2022-11-15T04:08:53;60.05;;;31.80;;
68614;SDS011;55593;51.994;5.882;2022-11-15T04:11:41;64.28;;;33.05;;
68614;SDS011;55593;51.994;5.882;2022-11-15T04:14:31;54.85;;;30.92;;
68614;SDS011;55593;51.994;5.882;2022-11-15T04:17:19;59.53;;;31.10;;
68614;SDS011;55593;51.994;5.882;2022-11-15T04:20:08;57.22;;;30.20;;
68614;SDS011;55593;51.994;5.882;2022-11-15T04:23:10;54.35;;;28.38;;
68614;SDS011;55593;51.994;5.882;2022-11-15T04:26:11;60.30;;;31.30;;
68614;SDS011;55593;51.994;5.882;2022-11-15T04:29:00;68.85;;;31.98;;
68614;SDS011;55593;51.994;5.882;2022-11-15T04:32:04;71.70;;;32.00;;
68614;SDS011;55593;51.994;5.882;2022-11-15T04:34:53;51.38;;;29.30;;
68614;SDS011;55593;51.994;5.882;2022-11-15T04:37:41;57.17;;;31.30;;
68614;SDS011;55593;51.994;5.882;2022-11-15T04:40:28;66.32;;;32.33;;
68614;SDS011;55593;51.994;5.882;2022-11-15T04:43:16;57.28;;;31.48;;
68614;SDS011;55593;51.994;5.882;2022-11-15T04:46:04;60.10;;;31.50;;
68614;SDS011;55593;51.994;5.882;2022-11-15T04:48:54;68.47;;;31.70;;
68614;SDS011;55593;51.994;5.882;2022-11-15T04:51:42;73.85;;;32.53;;
68614;SDS011;55593;51.994;5.882;2022-11-15T04:54:29;69.68;;;34.63;;
68614;SDS011;55593;51.994;5.882;2022-11-15T04:57:17;65.55;;;33.25;;
68614;SDS011;55593;51.994;5.882;2022-11-15T05:00:06;62.47;;;32.30;;
68614;SDS011;55593;51.994;5.882;2022-11-15T05:02:55;67.93;;;33.55;;
68614;SDS011;55593;51.994;5.882;2022-11-15T05:05:58;65.47;;;33.10;;
68614;SDS011;55593;51.994;5.882;2022-11-15T05:08:46;69.82;;;31.98;;
68614;SDS011;55593;51.994;5.882;2022-11-15T05:11:34;63.08;;;33.38;;
68614;SDS011;55593;51.994;5.882;2022-11-15T05:14:21;63.10;;;33.92;;
68614;SDS011;55593;51.994;5.882;2022-11-15T05:17:09;66.38;;;33.05;;
68614;SDS011;55593;51.994;5.882;2022-11-15T05:19:57;86.18;;;35.75;;
68614;SDS011;55593;51.994;5.882;2022-11-15T05:22:47;76.55;;;35.60;;
68614;SDS011;55593;51.994;5.882;2022-11-15T05:25:35;82.50;;;36.60;;
68614;SDS011;55593;51.994;5.882;2022-11-15T05:28:23;85.90;;;36.65;;
68614;SDS011;55593;51.994;5.882;2022-11-15T05:31:11;89.47;;;36.92;;
68614;SDS011;55593;51.994;5.882;2022-11-15T05:34:00;67.68;;;32.97;;
68614;SDS011;55593;51.994;5.882;2022-11-15T05:36:48;76.53;;;34.92;;
68614;SDS011;55593;51.994;5.882;2022-11-15T05:39:38;70.00;;;33.15;;
68614;SDS011;55593;51.994;5.882;2022-11-15T05:42:26;80.35;;;36.55;;
68614;SDS011;55593;51.994;5.882;2022-11-15T05:45:15;78.93;;;35.28;;
68614;SDS011;55593;51.994;5.882;2022-11-15T05:48:04;86.35;;;36.40;;
68614;SDS011;55593;51.994;5.882;2022-11-15T05:50:54;78.63;;;35.92;;
68614;SDS011;55593;51.994;5.882;2022-11-15T05:53:42;84.15;;;37.78;;
68614;SDS011;55593;51.994;5.882;2022-11-15T05:56:33;75.50;;;34.05;;
68614;SDS011;55593;51.994;5.882;2022-11-15T05:59:20;104.95;;;38.65;;
68614;SDS011;55593;51.994;5.882;2022-11-15T06:02:09;83.75;;;37.20;;
68614;SDS011;55593;51.994;5.882;2022-11-15T06:04:57;108.15;;;40.35;;
68614;SDS011;55593;51.994;5.882;2022-11-15T06:07:45;91.78;;;36.63;;
68614;SDS011;55593;51.994;5.882;2022-11-15T06:10:32;111.00;;;41.40;;
68614;SDS011;55593;51.994;5.882;2022-11-15T06:13:23;77.13;;;34.63;;
68614;SDS011;55593;51.994;5.882;2022-11-15T06:16:11;87.63;;;38.40;;
68614;SDS011;55593;51.994;5.882;2022-11-15T06:18:59;97.82;;;38.33;;
68614;SDS011;55593;51.994;5.882;2022-11-15T06:21:47;98.45;;;38.35;;
68614;SDS011;55593;51.994;5.882;2022-11-15T06:24:35;87.35;;;36.65;;
68614;SDS011;55593;51.994;5.882;2022-11-15T06:27:22;95.07;;;38.90;;
68614;SDS011;55593;51.994;5.882;2022-11-15T06:30:13;95.90;;;36.65;;
68614;SDS011;55593;51.994;5.882;2022-11-15T06:33:02;84.45;;;37.10;;
68614;SDS011;55593;51.994;5.882;2022-11-15T06:35:50;67.80;;;33.00;;
68614;SDS011;55593;51.994;5.882;2022-11-15T06:38:38;88.75;;;35.45;;
68614;SDS011;55593;51.994;5.882;2022-11-15T06:41:25;87.90;;;37.13;;
68614;SDS011;55593;51.994;5.882;2022-11-15T06:44:13;86.82;;;37.33;;
68614;SDS011;55593;51.994;5.882;2022-11-15T06:47:03;89.97;;;36.78;;
68614;SDS011;55593;51.994;5.882;2022-11-15T06:49:51;87.20;;;33.97;;
68614;SDS011;55593;51.994;5.882;2022-11-15T06:52:38;78.07;;;34.35;;
68614;SDS011;55593;51.994;5.882;2022-11-15T06:55:26;103.97;;;38.13;;
68614;SDS011;55593;51.994;5.882;2022-11-15T06:58:13;88.55;;;38.70;;
68614;SDS011;55593;51.994;5.882;2022-11-15T07:01:02;81.38;;;35.15;;
68614;SDS011;55593;51.994;5.882;2022-11-15T07:03:55;69.22;;;32.80;;
68614;SDS011;55593;51.994;5.882;2022-11-15T07:06:42;106.10;;;37.75;;
68614;SDS011;55593;51.994;5.882;2022-11-15T07:09:33;76.57;;;34.35;;
68614;SDS011;55593;51.994;5.882;2022-11-15T07:12:20;95.88;;;34.95;;
68614;SDS011;55593;51.994;5.882;2022-11-15T07:15:08;70.85;;;32.75;;
68614;SDS011;55593;51.994;5.882;2022-11-15T07:17:59;69.75;;;32.00;;
68614;SDS011;55593;51.994;5.882;2022-11-15T07:20:50;63.17;;;32.50;;
68614;SDS011;55593;51.994;5.882;2022-11-15T07:23:38;65.10;;;32.75;;
68614;SDS011;55593;51.994;5.882;2022-11-15T07:26:26;77.90;;;34.28;;
68614;SDS011;55593;51.994;5.882;2022-11-15T07:29:13;77.35;;;33.80;;
68614;SDS011;55593;51.994;5.882;2022-11-15T07:32:01;70.22;;;33.05;;
68614;SDS011;55593;51.994;5.882;2022-11-15T07:34:49;73.30;;;33.55;;
68614;SDS011;55593;51.994;5.882;2022-11-15T07:37:39;76.22;;;33.45;;
68614;SDS011;55593;51.994;5.882;2022-11-15T07:40:28;72.90;;;32.88;;
68614;SDS011;55593;51.994;5.882;2022-11-15T07:43:16;77.07;;;32.22;;
68614;SDS011;55593;51.994;5.882;2022-11-15T07:46:04;78.82;;;32.95;;
68614;SDS011;55593;51.994;5.882;2022-11-15T07:48:53;64.22;;;29.58;;
68614;SDS011;55593;51.994;5.882;2022-11-15T07:51:41;70.55;;;31.08;;
68614;SDS011;55593;51.994;5.882;2022-11-15T07:54:31;73.00;;;31.95;;
68614;SDS011;55593;51.994;5.882;2022-11-15T07:57:18;69.80;;;30.30;;
68614;SDS011;55593;51.994;5.882;2022-11-15T08:00:06;69.25;;;31.67;;
68614;SDS011;55593;51.994;5.882;2022-11-15T08:03:01;76.45;;;30.65;;
68614;SDS011;55593;51.994;5.882;2022-11-15T08:05:50;63.78;;;29.15;;
68614;SDS011;55593;51.994;5.882;2022-11-15T08:08:38;74.68;;;31.83;;
68614;SDS011;55593;51.994;5.882;2022-11-15T08:11:28;87.97;;;33.72;;
68614;SDS011;55593;51.994;5.882;2022-11-15T08:14:15;89.32;;;33.88;;
68614;SDS011;55593;51.994;5.882;2022-11-15T08:17:05;83.28;;;33.50;;
68614;SDS011;55593;51.994;5.882;2022-11-15T08:19:55;75.07;;;29.52;;
68614;SDS011;55593;51.994;5.882;2022-11-15T08:22:43;97.15;;;35.67;;
68614;SDS011;55593;51.994;5.882;2022-11-15T08:25:31;58.83;;;28.58;;
68614;SDS011;55593;51.994;5.882;2022-11-15T08:28:23;74.32;;;31.45;;
68614;SDS011;55593;51.994;5.882;2022-11-15T08:31:12;68.53;;;30.90;;
68614;SDS011;55593;51.994;5.882;2022-11-15T08:34:01;57.25;;;29.05;;
68614;SDS011;55593;51.994;5.882;2022-11-15T08:36:52;80.25;;;33.33;;
68614;SDS011;55593;51.994;5.882;2022-11-15T08:39:39;70.45;;;31.33;;
68614;SDS011;55593;51.994;5.882;2022-11-15T08:42:27;66.80;;;29.95;;
68614;SDS011;55593;51.994;5.882;2022-11-15T08:45:17;57.17;;;28.60;;
68614;SDS011;55593;51.994;5.882;2022-11-15T08:48:05;65.28;;;29.17;;
68614;SDS011;55593;51.994;5.882;2022-11-15T08:50:53;76.10;;;30.98;;
68614;SDS011;55593;51.994;5.882;2022-11-15T08:53:41;66.25;;;30.05;;
68614;SDS011;55593;51.994;5.882;2022-11-15T08:56:28;56.67;;;29.48;;
68614;SDS011;55593;51.994;5.882;2022-11-15T08:59:16;52.70;;;27.05;;
68614;SDS011;55593;51.994;5.882;2022-11-15T09:02:10;64.88;;;31.17;;
68614;SDS011;55593;51.994;5.882;2022-11-15T09:04:59;66.13;;;30.20;;
68614;SDS011;55593;51.994;5.882;2022-11-15T09:07:47;67.60;;;30.52;;
68614;SDS011;55593;51.994;5.882;2022-11-15T09:10:39;71.18;;;31.75;;
68614;SDS011;55593;51.994;5.882;2022-11-15T09:13:27;51.25;;;25.58;;
68614;SDS011;55593;51.994;5.882;2022-11-15T09:16:15;58.95;;;27.00;;
68614;SDS011;55593;51.994;5.882;2022-11-15T09:19:05;53.92;;;26.35;;
68614;SDS011;55593;51.994;5.882;2022-11-15T09:21:53;46.65;;;22.20;;
68614;SDS011;55593;51.994;5.882;2022-11-15T09:24:41;43.97;;;23.90;;
68614;SDS011;55593;51.994;5.882;2022-11-15T09:27:29;41.20;;;19.38;;
68614;SDS011;55593;51.994;5.882;2022-11-15T09:30:17;34.00;;;20.27;;
68614;SDS011;55593;51.994;5.882;2022-11-15T09:33:06;37.85;;;19.00;;
68614;SDS011;55593;51.994;5.882;2022-11-15T09:35:58;38.38;;;19.45;;
68614;SDS011;55593;51.994;5.882;2022-11-15T09:38:47;34.05;;;19.15;;
68614;SDS011;55593;51.994;5.882;2022-11-15T09:41:46;39.42;;;19.67;;
68614;SDS011;55593;51.994;5.882;2022-11-15T09:44:42;31.45;;;18.50;;
68614;SDS011;55593;51.994;5.882;2022-11-15T09:47:45;31.63;;;18.23;;
68614;SDS011;55593;51.994;5.882;2022-11-15T09:50:44;30.90;;;18.67;;
68614;SDS011;55593;51.994;5.882;2022-11-15T09:53:21;29.02;;;17.35;;
68614;SDS011;55593;51.994;5.882;2022-11-15T09:55:54;32.90;;;16.77;;
68614;SDS011;55593;51.994;5.882;2022-11-15T09:58:30;28.27;;;17.10;;
68614;SDS011;55593;51.994;5.882;2022-11-15T10:01:06;28.33;;;16.05;;
68614;SDS011;55593;51.994;5.882;2022-11-15T10:03:37;23.80;;;16.08;;
68614;SDS011;55593;51.994;5.882;2022-11-15T10:06:08;26.77;;;17.35;;
68614;SDS011;55593;51.994;5.882;2022-11-15T10:11:32;27.98;;;14.57;;
68614;SDS011;55593;51.994;5.882;2022-11-15T10:14:02;24.83;;;14.75;;
68614;SDS011;55593;51.994;5.882;2022-11-15T10:16:49;20.48;;;12.70;;
68614;SDS011;55593;51.994;5.882;2022-11-15T10:19:39;22.10;;;12.82;;
68614;SDS011;55593;51.994;5.882;2022-11-15T10:22:18;18.33;;;12.60;;
68614;SDS011;55593;51.994;5.882;2022-11-15T10:25:00;19.15;;;12.75;;
68614;SDS011;55593;51.994;5.882;2022-11-15T10:27:39;18.05;;;12.07;;
68614;SDS011;55593;51.994;5.882;2022-11-15T10:30:11;13.93;;;10.05;;
68614;SDS011;55593;51.994;5.882;2022-11-15T10:32:42;13.82;;;10.55;;
68614;SDS011;55593;51.994;5.882;2022-11-15T10:35:20;12.98;;;8.88;;
68614;SDS011;55593;51.994;5.882;2022-11-15T10:37:51;12.93;;;8.93;;
68614;SDS011;55593;51.994;5.882;2022-11-15T10:40:23;21.98;;;8.10;;
68614;SDS011;55593;51.994;5.882;2022-11-15T10:43:04;14.90;;;9.55;;
68614;SDS011;55593;51.994;5.882;2022-11-15T10:45:39;8.65;;;6.60;;
68614;SDS011;55593;51.994;5.882;2022-11-15T10:48:21;12.32;;;7.50;;
68614;SDS011;55593;51.994;5.882;2022-11-15T10:50:52;12.32;;;6.53;;
68614;SDS011;55593;51.994;5.882;2022-11-15T10:53:24;15.82;;;8.02;;
68614;SDS011;55593;51.994;5.882;2022-11-15T10:56:02;12.25;;;6.45;;
68614;SDS011;55593;51.994;5.882;2022-11-15T10:58:34;9.32;;;5.43;;
68614;SDS011;55593;51.994;5.882;2022-11-15T11:01:10;9.63;;;5.75;;
68614;SDS011;55593;51.994;5.882;2022-11-15T11:03:42;10.75;;;5.50;;
68614;SDS011;55593;51.994;5.882;2022-11-15T11:06:13;8.23;;;5.50;;
68614;SDS011;55593;51.994;5.882;2022-11-15T11:08:53;13.80;;;4.70;;
68614;SDS011;55593;51.994;5.882;2022-11-15T11:11:27;7.35;;;5.10;;
68614;SDS011;55593;51.994;5.882;2022-11-15T11:14:13;7.97;;;4.30;;
68614;SDS011;55593;51.994;5.882;2022-11-15T11:16:49;7.53;;;3.92;;
68614;SDS011;55593;51.994;5.882;2022-11-15T11:19:28;8.05;;;4.55;;
68614;SDS011;55593;51.994;5.882;2022-11-15T11:22:19;6.90;;;3.28;;
68614;SDS011;55593;51.994;5.882;2022-11-15T11:24:55;6.38;;;3.33;;
68614;SDS011;55593;51.994;5.882;2022-11-15T11:27:39;8.48;;;3.45;;
68614;SDS011;55593;51.994;5.882;2022-11-15T11:30:14;14.20;;;4.30;;
68614;SDS011;55593;51.994;5.882;2022-11-15T11:35:34;5.20;;;2.67;;
68614;SDS011;55593;51.994;5.882;2022-11-15T11:38:15;9.57;;;3.10;;
68614;SDS011;55593;51.994;5.882;2022-11-15T11:40:52;5.50;;;2.40;;
68614;SDS011;55593;51.994;5.882;2022-11-15T11:43:34;7.25;;;2.55;;
68614;SDS011;55593;51.994;5.882;2022-11-15T11:49:06;7.55;;;2.80;;
68614;SDS011;55593;51.994;5.882;2022-11-15T11:51:39;7.20;;;2.65;;
68614;SDS011;55593;51.994;5.882;2022-11-15T11:54:12;7.38;;;2.40;;
68614;SDS011;55593;51.994;5.882;2022-11-15T11:56:44;6.88;;;3.03;;
68614;SDS011;55593;51.994;5.882;2022-11-15T11:59:19;8.10;;;2.42;;
68614;SDS011;55593;51.994;5.882;2022-11-15T12:01:54;11.95;;;3.38;;
68614;SDS011;55593;51.994;5.882;2022-11-15T12:04:24;5.28;;;2.45;;
68614;SDS011;55593;51.994;5.882;2022-11-15T12:06:58;7.72;;;2.92;;
68614;SDS011;55593;51.994;5.882;2022-11-15T12:09:30;5.50;;;2.78;;
68614;SDS011;55593;51.994;5.882;2022-11-15T12:12:04;6.55;;;2.50;;
68614;SDS011;55593;51.994;5.882;2022-11-15T12:14:42;5.93;;;1.83;;
68614;SDS011;55593;51.994;5.882;2022-11-15T12:17:13;9.38;;;2.80;;
68614;SDS011;55593;51.994;5.882;2022-11-15T12:19:43;8.95;;;2.60;;
68614;SDS011;55593;51.994;5.882;2022-11-15T12:22:12;6.18;;;2.50;;
68614;SDS011;55593;51.994;5.882;2022-11-15T12:24:48;7.47;;;2.10;;
68614;SDS011;55593;51.994;5.882;2022-11-15T12:27:20;5.55;;;2.20;;
68614;SDS011;55593;51.994;5.882;2022-11-15T12:29:56;6.95;;;2.13;;
68614;SDS011;55593;51.994;5.882;2022-11-15T12:32:28;5.63;;;1.90;;
68614;SDS011;55593;51.994;5.882;2022-11-15T12:35:00;5.95;;;2.28;;
68614;SDS011;55593;51.994;5.882;2022-11-15T12:40:34;18.13;;;2.58;;
68614;SDS011;55593;51.994;5.882;2022-11-15T12:43:10;3.85;;;2.05;;
68614;SDS011;55593;51.994;5.882;2022-11-15T12:46:10;9.18;;;2.00;;
68614;SDS011;55593;51.994;5.882;2022-11-15T12:48:51;10.55;;;2.28;;
68614;SDS011;55593;51.994;5.882;2022-11-15T12:54:50;6.68;;;1.63;;
68614;SDS011;55593;51.994;5.882;2022-11-15T12:57:38;8.38;;;1.60;;
68614;SDS011;55593;51.994;5.882;2022-11-15T13:03:26;5.47;;;1.55;;
68614;SDS011;55593;51.994;5.882;2022-11-15T13:06:07;7.13;;;1.70;;
68614;SDS011;55593;51.994;5.882;2022-11-15T13:08:43;4.07;;;1.60;;
68614;SDS011;55593;51.994;5.882;2022-11-15T13:17:30;8.80;;;1.90;;
68614;SDS011;55593;51.994;5.882;2022-11-15T13:20:21;8.73;;;2.00;;
68614;SDS011;55593;51.994;5.882;2022-11-15T13:22:58;4.95;;;1.50;;
68614;SDS011;55593;51.994;5.882;2022-11-15T13:25:44;5.80;;;1.80;;
68614;SDS011;55593;51.994;5.882;2022-11-15T13:28:42;5.55;;;1.40;;
68614;SDS011;55593;51.994;5.882;2022-11-15T13:31:28;3.00;;;1.13;;
68614;SDS011;55593;51.994;5.882;2022-11-15T13:33:59;3.72;;;1.55;;
68614;SDS011;55593;51.994;5.882;2022-11-15T13:36:32;5.70;;;1.63;;
68614;SDS011;55593;51.994;5.882;2022-11-15T13:39:04;3.00;;;1.20;;
68614;SDS011;55593;51.994;5.882;2022-11-15T13:41:35;12.15;;;1.95;;
68614;SDS011;55593;51.994;5.882;2022-11-15T13:44:05;4.38;;;1.40;;
68614;SDS011;55593;51.994;5.882;2022-11-15T13:46:48;3.60;;;1.30;;
68614;SDS011;55593;51.994;5.882;2022-11-15T13:49:17;9.60;;;2.00;;
68614;SDS011;55593;51.994;5.882;2022-11-15T13:51:49;7.97;;;1.67;;
68614;SDS011;55593;51.994;5.882;2022-11-15T13:54:22;6.28;;;1.88;;
68614;SDS011;55593;51.994;5.882;2022-11-15T13:56:53;6.75;;;1.50;;
68614;SDS011;55593;51.994;5.882;2022-11-15T13:59:25;6.70;;;2.17;;
68614;SDS011;55593;51.994;5.882;2022-11-15T14:01:58;5.85;;;1.75;;
68614;SDS011;55593;51.994;5.882;2022-11-15T14:04:30;7.43;;;1.88;;
68614;SDS011;55593;51.994;5.882;2022-11-15T14:07:04;4.72;;;1.90;;
68614;SDS011;55593;51.994;5.882;2022-11-15T14:09:34;6.57;;;1.70;;
68614;SDS011;55593;51.994;5.882;2022-11-15T14:14:55;5.03;;;1.70;;
68614;SDS011;55593;51.994;5.882;2022-11-15T14:17:34;5.90;;;1.73;;
68614;SDS011;55593;51.994;5.882;2022-11-15T14:23:00;7.57;;;2.38;;
68614;SDS011;55593;51.994;5.882;2022-11-15T14:25:31;5.32;;;2.53;;
68614;SDS011;55593;51.994;5.882;2022-11-15T14:28:08;5.03;;;2.17;;
68614;SDS011;55593;51.994;5.882;2022-11-15T14:30:45;6.90;;;2.38;;
68614;SDS011;55593;51.994;5.882;2022-11-15T14:33:18;10.40;;;2.45;;
68614;SDS011;55593;51.994;5.882;2022-11-15T14:35:49;4.93;;;2.20;;
68614;SDS011;55593;51.994;5.882;2022-11-15T14:38:21;10.55;;;2.40;;
68614;SDS011;55593;51.994;5.882;2022-11-15T14:40:50;7.38;;;2.03;;
68614;SDS011;55593;51.994;5.882;2022-11-15T14:43:19;5.28;;;1.95;;
68614;SDS011;55593;51.994;5.882;2022-11-15T14:45:48;5.50;;;1.70;;
68614;SDS011;55593;51.994;5.882;2022-11-15T14:48:18;6.03;;;1.88;;
68614;SDS011;55593;51.994;5.882;2022-11-15T14:50:48;9.40;;;1.90;;
68614;SDS011;55593;51.994;5.882;2022-11-15T14:53:18;10.25;;;1.98;;
68614;SDS011;55593;51.994;5.882;2022-11-15T14:55:50;5.55;;;2.00;;
68614;SDS011;55593;51.994;5.882;2022-11-15T14:58:19;5.30;;;2.10;;
68614;SDS011;55593;51.994;5.882;2022-11-15T15:00:48;9.10;;;3.13;;
68614;SDS011;55593;51.994;5.882;2022-11-15T15:03:17;9.68;;;3.92;;
68614;SDS011;55593;51.994;5.882;2022-11-15T15:05:46;7.30;;;3.38;;
68614;SDS011;55593;51.994;5.882;2022-11-15T15:08:15;9.52;;;4.05;;
68614;SDS011;55593;51.994;5.882;2022-11-15T15:10:47;13.95;;;4.07;;
68614;SDS011;55593;51.994;5.882;2022-11-15T15:13:17;6.88;;;2.88;;
68614;SDS011;55593;51.994;5.882;2022-11-15T15:15:48;10.35;;;3.17;;
68614;SDS011;55593;51.994;5.882;2022-11-15T15:18:20;12.82;;;3.08;;
68614;SDS011;55593;51.994;5.882;2022-11-15T15:20:51;7.55;;;3.42;;
68614;SDS011;55593;51.994;5.882;2022-11-15T15:23:25;7.38;;;3.75;;
68614;SDS011;55593;51.994;5.882;2022-11-15T15:25:59;8.27;;;2.60;;
68614;SDS011;55593;51.994;5.882;2022-11-15T15:28:28;7.00;;;2.78;;
68614;SDS011;55593;51.994;5.882;2022-11-15T15:30:58;7.75;;;2.40;;
68614;SDS011;55593;51.994;5.882;2022-11-15T15:33:27;8.45;;;2.80;;
68614;SDS011;55593;51.994;5.882;2022-11-15T15:35:56;6.45;;;2.88;;
68614;SDS011;55593;51.994;5.882;2022-11-15T15:38:25;9.43;;;3.35;;
68614;SDS011;55593;51.994;5.882;2022-11-15T15:40:54;6.70;;;2.80;;
68614;SDS011;55593;51.994;5.882;2022-11-15T15:43:28;5.93;;;2.47;;
68614;SDS011;55593;51.994;5.882;2022-11-15T15:45:57;6.53;;;2.63;;
68614;SDS011;55593;51.994;5.882;2022-11-15T15:48:26;8.30;;;2.30;;
68614;SDS011;55593;51.994;5.882;2022-11-15T15:50:55;9.32;;;2.28;;
68614;SDS011;55593;51.994;5.882;2022-11-15T15:53:24;7.78;;;1.90;;
68614;SDS011;55593;51.994;5.882;2022-11-15T15:55:54;5.00;;;2.53;;
68614;SDS011;55593;51.994;5.882;2022-11-15T15:58:23;8.43;;;2.60;;
68614;SDS011;55593;51.994;5.882;2022-11-15T16:00:55;7.15;;;2.58;;
68614;SDS011;55593;51.994;5.882;2022-11-15T16:03:24;8.77;;;2.50;;
68614;SDS011;55593;51.994;5.882;2022-11-15T16:05:54;6.45;;;2.80;;
68614;SDS011;55593;51.994;5.882;2022-11-15T16:08:24;7.55;;;2.55;;
68614;SDS011;55593;51.994;5.882;2022-11-15T16:10:55;5.45;;;2.50;;
68614;SDS011;55593;51.994;5.882;2022-11-15T16:13:24;7.22;;;2.25;;
68614;SDS011;55593;51.994;5.882;2022-11-15T16:15:56;8.63;;;2.33;;
68614;SDS011;55593;51.994;5.882;2022-11-15T16:18:26;8.20;;;2.47;;
68614;SDS011;55593;51.994;5.882;2022-11-15T16:20:55;7.22;;;2.50;;
68614;SDS011;55593;51.994;5.882;2022-11-15T16:23:26;8.60;;;2.47;;
68614;SDS011;55593;51.994;5.882;2022-11-15T16:25:55;5.18;;;2.20;;
68614;SDS011;55593;51.994;5.882;2022-11-15T16:28:25;7.07;;;2.30;;
68614;SDS011;55593;51.994;5.882;2022-11-15T16:31:02;5.78;;;2.28;;
68614;SDS011;55593;51.994;5.882;2022-11-15T16:33:32;6.70;;;2.70;;
68614;SDS011;55593;51.994;5.882;2022-11-15T16:36:02;6.93;;;2.60;;
68614;SDS011;55593;51.994;5.882;2022-11-15T16:38:31;8.15;;;3.10;;
68614;SDS011;55593;51.994;5.882;2022-11-15T16:41:01;6.97;;;2.40;;
68614;SDS011;55593;51.994;5.882;2022-11-15T16:43:30;10.32;;;2.92;;